Time;durP1;ratioP1;P1;durP2;ratioP2;P2;SDS_P1;SDS_P2;PMS_P1;PMS_P2;Temp;Humidity;BMP_temperature;BMP_pressure;BME280_temperature;BME280_humidity;BME280_pressure;Samples;Min_cycle;Max_cycle;Signal;HPM_P1;HPM_P2
2021/03/04 00:00:45;;;;;;;6.65;4.28;;;21.00;45.50;;;;;;5024170;28;20624;-40
2021/03/04 00:03:11;;;;;;;6.22;4.15;;;21.00;45.50;;;;;;5024226;28;20058;-47
2021/03/04 00:05:37;;;;;;;5.97;3.70;;;21.00;45.40;;;;;;5022591;28;20042;-39
2021/03/04 00:08:04;;;;;;;7.63;4.22;;;21.00;45.40;;;;;;5027053;28;20040;-39
2021/03/04 00:10:29;;;;;;;9.63;4.43;;;21.00;45.40;;;;;;5024260;28;20048;-40
2021/03/04 00:12:56;;;;;;;6.57;3.75;;;21.00;45.40;;;;;;5024647;28;20462;-39
2021/03/04 00:15:24;;;;;;;5.55;3.70;;;21.00;45.40;;;;;;5023910;28;20034;-39
2021/03/04 00:17:50;;;;;;;6.38;3.55;;;21.00;45.30;;;;;;5026569;28;20050;-39
2021/03/04 00:20:36;;;;;;;4.78;3.85;;;21.00;45.30;;;;;;5022975;28;20375;-41
2021/03/04 00:23:02;;;;;;;6.50;4.10;;;21.00;45.30;;;;;;5024360;28;20030;-39
2021/03/04 00:25:34;;;;;;;9.18;3.83;;;21.00;45.20;;;;;;5023390;28;20074;-39
2021/03/04 00:28:00;;;;;;;4.95;3.63;;;21.00;45.20;;;;;;5024170;28;20060;-41
2021/03/04 00:30:26;;;;;;;4.88;3.72;;;21.00;45.20;;;;;;5023756;28;20413;-39
2021/03/04 00:32:52;;;;;;;5.82;3.80;;;20.90;45.10;;;;;;5033442;28;20144;-39
2021/03/04 00:35:18;;;;;;;5.00;3.63;;;20.90;45.10;;;;;;5032936;28;20390;-39
2021/03/04 00:37:43;;;;;;;6.10;3.70;;;21.00;45.10;;;;;;5016217;28;20034;-39
2021/03/04 00:40:15;;;;;;;5.35;3.63;;;20.90;45.70;;;;;;5033354;28;20116;-42
2021/03/04 00:42:41;;;;;;;6.22;3.55;;;20.90;45.10;;;;;;5016101;28;20029;-39
2021/03/04 00:45:19;;;;;;;5.43;4.32;;;20.90;45.00;;;;;;5011783;28;20034;-39
2021/03/04 00:47:44;;;;;;;7.05;4.03;;;20.90;44.90;;;;;;5033546;28;20033;-41
2021/03/04 00:50:11;;;;;;;6.25;3.92;;;20.90;45.00;;;;;;5032989;28;20104;-44
2021/03/04 00:52:37;;;;;;;6.18;3.67;;;20.90;44.90;;;;;;5032876;28;20041;-39
2021/03/04 00:55:04;;;;;;;6.10;3.90;;;20.90;45.00;;;;;;5033416;28;20096;-39
2021/03/04 00:57:29;;;;;;;5.68;3.70;;;20.90;45.00;;;;;;5032171;28;20614;-40
2021/03/04 00:59:55;;;;;;;5.60;3.75;;;20.90;45.00;;;;;;5033639;28;20100;-42
2021/03/04 01:02:20;;;;;;;5.03;3.22;;;20.90;44.90;;;;;;5033608;28;20026;-39
2021/03/04 01:04:46;;;;;;;6.32;3.40;;;20.90;44.90;;;;;;5032944;28;20057;-40
2021/03/04 01:07:12;;;;;;;6.28;3.65;;;20.90;44.90;;;;;;5032915;28;20455;-46
2021/03/04 01:09:37;;;;;;;6.88;3.90;;;20.90;44.90;;;;;;5032928;28;20040;-41
2021/03/04 01:12:03;;;;;;;7.00;4.10;;;20.90;44.90;;;;;;5033755;28;20394;-43
2021/03/04 01:14:29;;;;;;;5.68;3.97;;;20.90;44.80;;;;;;5032328;28;20597;-41
2021/03/04 01:16:56;;;;;;;7.32;4.20;;;20.80;44.70;;;;;;5015051;28;20042;-42
2021/03/04 01:19:21;;;;;;;5.22;3.85;;;20.90;44.80;;;;;;5031934;28;20035;-39
2021/03/04 01:21:47;;;;;;;6.07;3.90;;;20.90;44.80;;;;;;5032579;28;20029;-39
2021/03/04 01:24:13;;;;;;;4.85;3.55;;;20.90;44.90;;;;;;5032139;28;20487;-42
2021/03/04 01:26:38;;;;;;;6.20;3.53;;;20.80;44.80;;;;;;5032424;28;20025;-39
2021/03/04 01:29:04;;;;;;;4.78;3.05;;;20.80;44.80;;;;;;5032535;28;20415;-40
2021/03/04 01:31:30;;;;;;;7.25;3.58;;;20.80;44.70;;;;;;5031586;28;20048;-41
2021/03/04 01:33:56;;;;;;;4.88;3.60;;;20.80;44.70;;;;;;5014593;28;20099;-39
2021/03/04 01:36:21;;;;;;;4.47;3.17;;;20.80;44.70;;;;;;5031839;28;20037;-39
2021/03/04 01:38:47;;;;;;;4.88;3.50;;;20.80;44.70;;;;;;5032498;28;20045;-39
2021/03/04 01:41:13;;;;;;;6.32;3.00;;;20.80;44.80;;;;;;5031897;28;20034;-45
2021/03/04 01:43:38;;;;;;;4.15;3.35;;;20.80;44.70;;;;;;5032091;28;20390;-39
2021/03/04 01:46:04;;;;;;;6.40;3.65;;;20.80;44.70;;;;;;5031290;28;20025;-41
2021/03/04 01:48:29;;;;;;;6.60;4.25;;;20.80;44.70;;;;;;5031428;28;20113;-39
2021/03/04 01:50:56;;;;;;;4.15;3.05;;;20.80;44.70;;;;;;5031984;28;20029;-42
2021/03/04 01:53:22;;;;;;;7.20;3.50;;;20.80;44.70;;;;;;5031756;28;20424;-39
2021/03/04 01:55:49;;;;;;;4.43;3.30;;;20.80;44.70;;;;;;5032401;28;20060;-39
2021/03/04 01:58:15;;;;;;;4.85;2.95;;;20.80;44.70;;;;;;5030970;28;20044;-39
2021/03/04 02:00:40;;;;;;;5.18;3.58;;;20.80;44.70;;;;;;5032610;28;20030;-39
2021/03/04 02:03:06;;;;;;;21.60;4.28;;;20.80;44.70;;;;;;5031172;28;20021;-39
2021/03/04 02:05:31;;;;;;;4.38;2.95;;;20.70;44.60;;;;;;5030678;28;20026;-41
2021/03/04 02:08:39;;;;;;;5.97;3.50;;;20.80;44.60;;;;;;5031950;28;20041;-42
2021/03/04 02:11:10;;;;;;;4.72;3.47;;;20.80;44.60;;;;;;5027564;28;20029;-42
2021/03/04 02:14:06;;;;;;;5.07;3.47;;;20.80;44.60;;;;;;5013769;28;20021;-39
2021/03/04 02:16:37;;;;;;;5.55;3.15;;;20.80;44.60;;;;;;5030864;28;20140;-39
2021/03/04 02:19:09;;;;;;;4.70;3.33;;;20.80;44.60;;;;;;5032375;28;20037;-40
2021/03/04 02:21:53;;;;;;;4.45;3.20;;;20.70;44.40;;;;;;5030768;28;20041;-41
2021/03/04 02:24:35;;;;;;;5.22;3.55;;;20.70;44.40;;;;;;5031471;28;20417;-39
2021/03/04 02:27:27;;;;;;;;;;;20.70;44.50;;;;;;5032123;28;20446;-39
2021/03/04 02:30:05;;;;;;;5.13;3.65;;;20.80;44.50;;;;;;5027886;28;20428;-39
2021/03/04 02:32:33;;;;;;;5.57;3.47;;;20.70;44.50;;;;;;5030296;28;20041;-41
2021/03/04 02:35:12;;;;;;;4.93;3.40;;;20.70;44.50;;;;;;5031689;28;20034;-39
2021/03/04 02:37:43;;;;;;;5.78;3.13;;;20.70;44.40;;;;;;5031096;28;20482;-40
2021/03/04 02:40:12;;;;;;;4.07;2.80;;;20.70;44.40;;;;;;5030932;28;20036;-41
2021/03/04 02:42:40;;;;;;;5.53;3.90;;;20.70;44.50;;;;;;5030942;28;20064;-39
2021/03/04 02:45:07;;;;;;;4.55;3.15;;;20.70;44.50;;;;;;5013377;28;20371;-41
2021/03/04 02:47:34;;;;;;;5.13;3.25;;;20.70;44.40;;;;;;5030923;28;20029;-39
2021/03/04 02:50:00;;;;;;;5.85;3.17;;;20.70;44.40;;;;;;5031570;28;20382;-40
2021/03/04 02:52:27;;;;;;;3.83;3.05;;;20.80;44.40;;;;;;5030139;28;20125;-39
2021/03/04 02:54:54;;;;;;;5.15;3.13;;;20.70;44.40;;;;;;5031664;28;20381;-39
2021/03/04 02:57:21;;;;;;;6.95;3.22;;;20.70;44.50;;;;;;5012045;28;20033;-39
2021/03/04 02:59:48;;;;;;;4.68;3.28;;;20.70;44.30;;;;;;5030442;28;20033;-39
2021/03/04 03:02:15;;;;;;;4.93;3.17;;;20.70;44.30;;;;;;5012710;28;20029;-44
2021/03/04 03:04:42;;;;;;;4.20;3.10;;;20.70;44.30;;;;;;5031318;28;20029;-39
2021/03/04 03:07:10;;;;;;;4.97;3.17;;;20.70;44.30;;;;;;5030992;28;20351;-39
2021/03/04 03:09:38;;;;;;;4.57;3.38;;;20.70;44.30;;;;;;5030022;28;20025;-40
2021/03/04 03:12:04;;;;;;;3.95;2.70;;;20.70;44.30;;;;;;5023230;28;20032;-38
2021/03/04 03:14:30;;;;;;;3.58;2.55;;;20.70;44.20;;;;;;5023867;28;20029;-42
2021/03/04 03:16:58;;;;;;;5.18;3.38;;;20.70;44.30;;;;;;5026530;28;20481;-38
2021/03/04 03:19:25;;;;;;;4.18;3.10;;;20.70;44.20;;;;;;5024134;28;20443;-38
2021/03/04 03:21:50;;;;;;;5.32;3.45;;;20.70;44.30;;;;;;5023942;28;20041;-39
2021/03/04 03:24:16;;;;;;;5.40;3.15;;;20.70;44.90;;;;;;5022556;28;20032;-44
2021/03/04 03:26:42;;;;;;;3.70;2.67;;;20.70;44.20;;;;;;5027110;28;20534;-39
2021/03/04 03:29:08;;;;;;;6.88;3.33;;;20.70;44.20;;;;;;5027007;28;20045;-39
2021/03/04 03:31:35;;;;;;;4.57;2.90;;;20.70;44.30;;;;;;5026201;28;20108;-44
2021/03/04 03:34:01;;;;;;;6.00;2.95;;;20.70;44.20;;;;;;5021411;28;20042;-42
2021/03/04 03:36:29;;;;;;;5.40;2.72;;;20.70;44.20;;;;;;5025635;28;20048;-39
2021/03/04 03:38:56;;;;;;;4.15;2.80;;;20.70;44.30;;;;;;5025779;28;20042;-41
2021/03/04 03:41:24;;;;;;;4.25;3.00;;;20.70;44.20;;;;;;5025887;28;20029;-39
2021/03/04 03:43:50;;;;;;;6.40;2.70;;;20.70;44.20;;;;;;5025345;28;20064;-41
2021/03/04 03:46:16;;;;;;;3.90;3.05;;;20.70;44.20;;;;;;5020417;28;20029;-41
2021/03/04 03:48:43;;;;;;;5.10;3.00;;;20.70;44.20;;;;;;5025363;28;20089;-38
2021/03/04 03:51:10;;;;;;;4.93;2.90;;;20.70;44.20;;;;;;5026684;28;20057;-38
2021/03/04 03:53:35;;;;;;;3.50;2.90;;;20.70;44.80;;;;;;5024528;28;20080;-43
2021/03/04 03:56:02;;;;;;;3.92;2.75;;;20.70;44.20;;;;;;5028185;28;20474;-41
2021/03/04 03:58:29;;;;;;;4.05;2.70;;;20.70;44.10;;;;;;5025648;28;20060;-38
2021/03/04 04:00:58;;;;;;;5.00;3.17;;;20.70;44.10;;;;;;5006059;28;20049;-39
2021/03/04 04:03:24;;;;;;;5.35;3.42;;;20.70;44.10;;;;;;5019265;28;20434;-40
2021/03/04 04:05:50;;;;;;;4.75;3.10;;;20.70;44.10;;;;;;5006266;28;20057;-39
2021/03/04 04:08:18;;;;;;;4.18;3.25;;;20.70;44.10;;;;;;5027837;28;20029;-46
2021/03/04 04:10:46;;;;;;;4.75;3.15;;;20.70;44.10;;;;;;5004931;28;20026;-41
2021/03/04 04:13:12;;;;;;;5.00;3.30;;;20.70;44.10;;;;;;5024783;28;20541;-42
2021/03/04 04:15:38;;;;;;;5.68;2.55;;;20.70;44.00;;;;;;5004798;28;20120;-42
2021/03/04 04:18:05;;;;;;;3.95;2.90;;;20.70;44.00;;;;;;5025746;28;20175;-39
2021/03/04 04:20:31;;;;;;;6.53;2.65;;;20.70;44.00;;;;;;5024424;28;20038;-38
2021/03/04 04:22:57;;;;;;;3.95;2.70;;;20.70;44.10;;;;;;5026372;28;20470;-39
2021/03/04 04:25:25;;;;;;;4.32;2.90;;;20.70;44.10;;;;;;5021312;28;20032;-38
2021/03/04 04:27:55;;;;;;;5.38;3.10;;;20.70;44.00;;;;;;5025734;28;20034;-39
2021/03/04 04:30:23;;;;;;;4.18;2.55;;;20.70;44.00;;;;;;5006232;28;20489;-38
2021/03/04 04:32:49;;;;;;;5.95;3.22;;;20.70;44.00;;;;;;5024103;28;20125;-38
2021/03/04 04:35:17;;;;;;;3.95;2.90;;;20.70;44.00;;;;;;5022983;28;20112;-45
2021/03/04 04:37:43;;;;;;;4.35;3.05;;;20.70;44.00;;;;;;5025270;28;20044;-41
2021/03/04 04:40:10;;;;;;;5.03;2.80;;;20.70;44.00;;;;;;5023401;28;20109;-38
2021/03/04 04:42:37;;;;;;;5.35;2.80;;;20.70;44.00;;;;;;5021961;28;20074;-39
2021/03/04 04:45:05;;;;;;;4.30;2.80;;;20.70;44.00;;;;;;5022301;28;20029;-41
2021/03/04 04:47:31;;;;;;;3.58;2.55;;;20.70;43.90;;;;;;5022777;28;20028;-40
2021/03/04 04:49:57;;;;;;;4.38;2.85;;;20.70;44.00;;;;;;5024032;28;20398;-39
2021/03/04 04:52:23;;;;;;;3.80;2.67;;;20.70;44.00;;;;;;5025812;28;20033;-38
2021/03/04 04:54:48;;;;;;;4.45;2.85;;;20.70;44.00;;;;;;5022866;28;20030;-38
2021/03/04 04:57:14;;;;;;;4.20;2.75;;;20.70;43.90;;;;;;5022937;28;20776;-41
2021/03/04 04:59:39;;;;;;;3.28;2.40;;;20.70;44.00;;;;;;5025103;28;20076;-39
2021/03/04 05:02:05;;;;;;;3.78;2.65;;;20.70;43.90;;;;;;5023861;28;20549;-38
2021/03/04 05:04:31;;;;;;;4.47;2.88;;;20.70;43.90;;;;;;5023640;28;20088;-38
2021/03/04 05:06:56;;;;;;;5.47;2.72;;;20.70;44.00;;;;;;5025599;28;20494;-40
2021/03/04 05:09:22;;;;;;;4.75;3.15;;;20.70;43.90;;;;;;5024883;28;20113;-39
2021/03/04 05:11:47;;;;;;;3.25;2.63;;;20.80;44.00;;;;;;5024090;28;20064;-39
2021/03/04 05:14:13;;;;;;;4.15;2.50;;;20.70;43.90;;;;;;5024019;28;20524;-44
2021/03/04 05:16:39;;;;;;;4.57;2.90;;;20.70;43.90;;;;;;5024018;28;20030;-39
2021/03/04 05:19:04;;;;;;;4.43;2.80;;;20.80;43.90;;;;;;5024221;28;20042;-38
2021/03/04 05:21:30;;;;;;;3.70;2.55;;;20.80;43.90;;;;;;5020851;28;20038;-40
2021/03/04 05:23:55;;;;;;;5.07;2.88;;;20.80;43.90;;;;;;5025516;28;20072;-39
2021/03/04 05:26:21;;;;;;;3.63;2.53;;;20.70;43.90;;;;;;5021902;28;20034;-39
2021/03/04 05:28:46;;;;;;;4.75;3.05;;;20.80;44.00;;;;;;5026383;28;20450;-38
2021/03/04 05:31:12;;;;;;;5.72;2.70;;;20.80;43.90;;;;;;5025992;28;20367;-39
2021/03/04 05:33:38;;;;;;;5.82;2.95;;;20.80;43.90;;;;;;5024620;28;20064;-39
2021/03/04 05:36:04;;;;;;;5.13;2.80;;;20.70;43.90;;;;;;5024929;28;20034;-44
2021/03/04 05:38:30;;;;;;;4.13;2.50;;;20.80;43.90;;;;;;5021937;28;20025;-40
2021/03/04 05:40:56;;;;;;;3.55;2.65;;;20.80;43.90;;;;;;5021071;28;20079;-39
2021/03/04 05:43:22;;;;;;;3.83;2.42;;;20.80;43.90;;;;;;5023072;28;20022;-39
2021/03/04 05:45:49;;;;;;;3.22;2.58;;;20.80;43.90;;;;;;5007214;28;20490;-38
2021/03/04 05:48:20;;;;;;;3.47;2.50;;;20.80;43.80;;;;;;5025530;28;20037;-46
2021/03/04 05:50:50;;;;;;;3.40;2.20;;;20.80;43.80;;;;;;5007244;28;20394;-38
2021/03/04 05:53:19;;;;;;;5.50;2.45;;;20.80;43.80;;;;;;5031841;28;20100;-47
2021/03/04 05:55:47;;;;;;;4.60;2.97;;;20.70;43.90;;;;;;5031953;28;20025;-41
2021/03/04 05:58:14;;;;;;;6.75;2.40;;;20.80;44.00;;;;;;5031916;28;20088;-38
2021/03/04 06:00:43;;;;;;;3.78;2.47;;;20.80;43.80;;;;;;5030826;28;20038;-39
2021/03/04 06:03:10;;;;;;;3.60;2.47;;;20.90;43.70;;;;;;5032093;28;20462;-38
2021/03/04 06:05:36;;;;;;;5.90;2.90;;;21.00;43.50;;;;;;5031063;28;20092;-40
2021/03/04 06:08:04;;;;;;;4.75;2.88;;;21.10;43.40;;;;;;5031998;28;20536;-38
2021/03/04 06:10:31;;;;;;;3.70;2.60;;;21.10;43.40;;;;;;5030708;28;20017;-40
2021/03/04 06:12:58;;;;;;;7.95;2.95;;;21.20;43.20;;;;;;5012010;28;20449;-41
2021/03/04 06:15:24;;;;;;;5.15;2.85;;;21.20;43.00;;;;;;5024839;28;20021;-39
2021/03/04 06:17:57;;;;;;;6.20;2.42;;;21.30;43.10;;;;;;5032256;28;20029;-39
2021/03/04 06:20:34;;;;;;;5.03;2.88;;;21.30;43.00;;;;;;5030669;28;20025;-41
2021/03/04 06:23:00;;;;;;;7.25;2.75;;;21.40;43.00;;;;;;5032092;28;20124;-41
2021/03/04 06:25:25;;;;;;;5.55;2.38;;;21.50;43.00;;;;;;5030606;28;20092;-41
2021/03/04 06:27:52;;;;;;;7.70;2.78;;;21.50;43.10;;;;;;5026279;28;20038;-38
2021/03/04 06:30:18;;;;;;;12.77;2.47;;;21.50;43.30;;;;;;5010113;28;20079;-43
2021/03/04 06:33:01;;;;;;;8.05;2.63;;;21.60;43.80;;;;;;5023743;28;20479;-37
2021/03/04 06:35:35;;;;;;;15.23;3.40;;;21.60;44.20;;;;;;5027082;28;20045;-50
2021/03/04 06:38:12;;;;;;;10.68;2.85;;;21.50;44.40;;;;;;5031023;28;20112;-49
2021/03/04 06:40:38;;;;;;;9.43;2.85;;;21.50;44.20;;;;;;5030279;28;20112;-45
2021/03/04 06:43:04;;;;;;;17.45;3.30;;;21.50;44.40;;;;;;5031648;28;20546;-48
2021/03/04 06:45:38;;;;;;;9.77;2.97;;;21.50;44.60;;;;;;5030327;28;20057;-46
2021/03/04 06:48:11;;;;;;;8.75;3.33;;;21.50;44.50;;;;;;5013442;28;20034;-50
2021/03/04 06:50:44;;;;;;;7.60;2.95;;;21.50;43.90;;;;;;5030354;28;20014;-46
2021/03/04 06:53:17;;;;;;;8.90;3.22;;;21.40;44.50;;;;;;5030982;28;20370;-44
2021/03/04 06:55:49;;;;;;;17.40;4.07;;;21.40;44.60;;;;;;5030402;28;20088;-45
2021/03/04 06:58:22;;;;;;;14.20;3.28;;;21.40;44.70;;;;;;5030486;28;20029;-45
2021/03/04 07:00:47;;;;;;;12.10;3.42;;;21.50;44.80;;;;;;5031681;28;20034;-45
2021/03/04 07:03:13;;;;;;;7.80;3.20;;;21.50;44.60;;;;;;5013855;28;20029;-46
2021/03/04 07:05:38;;;;;;;15.93;3.35;;;21.40;44.80;;;;;;5029988;28;20033;-45
2021/03/04 07:08:06;;;;;;;7.85;3.20;;;21.50;44.60;;;;;;5012533;28;20390;-42
2021/03/04 07:10:32;;;;;;;10.50;2.67;;;21.40;44.80;;;;;;5012367;28;20033;-41
2021/03/04 07:12:58;;;;;;;7.68;3.22;;;21.40;44.70;;;;;;5031127;28;20029;-41
2021/03/04 07:15:24;;;;;;;7.07;2.90;;;21.30;44.70;;;;;;5030048;28;20386;-44
2021/03/04 07:17:51;;;;;;;8.52;2.97;;;21.40;44.80;;;;;;5031139;28;20496;-40
2021/03/04 07:20:19;;;;;;;6.68;3.00;;;21.30;44.70;;;;;;5012587;28;20030;-50
2021/03/04 07:22:46;;;;;;;7.95;3.50;;;21.30;44.70;;;;;;5011022;28;20021;-47
2021/03/04 07:25:14;;;;;;;4.65;2.97;;;21.20;44.70;;;;;;5025312;28;20048;-41
2021/03/04 07:27:41;;;;;;;7.25;2.67;;;21.20;44.70;;;;;;5028180;28;20173;-44
2021/03/04 07:30:09;;;;;;;6.00;3.05;;;21.20;44.70;;;;;;5030581;28;20367;-41
2021/03/04 07:32:35;;;;;;;5.80;3.17;;;21.20;44.70;;;;;;5012076;28;20127;-41
2021/03/04 07:35:04;;;;;;;7.78;2.83;;;21.20;44.70;;;;;;5030449;28;20037;-41
2021/03/04 07:37:30;;;;;;;9.98;2.80;;;21.10;44.60;;;;;;5028992;28;20036;-43
2021/03/04 07:40:00;;;;;;;8.52;3.42;;;21.10;44.70;;;;;;5030072;28;20040;-47
2021/03/04 07:42:26;;;;;;;6.20;3.35;;;21.10;44.60;;;;;;5029743;28;20044;-43
2021/03/04 07:44:52;;;;;;;6.88;3.80;;;21.10;44.60;;;;;;5026602;28;20045;-41
2021/03/04 07:47:27;;;;;;;6.78;2.90;;;21.10;44.60;;;;;;5030416;28;20068;-47
2021/03/04 07:49:54;;;;;;;6.90;3.15;;;21.10;44.50;;;;;;5030936;28;20037;-43
2021/03/04 07:52:24;;;;;;;5.53;2.92;;;21.00;44.50;;;;;;5028737;28;20433;-48
2021/03/04 07:54:55;;;;;;;7.40;2.75;;;21.00;44.40;;;;;;5030602;28;20545;-42
2021/03/04 07:57:23;;;;;;;7.35;3.00;;;21.00;44.50;;;;;;5029416;28;20386;-46
2021/03/04 07:59:51;;;;;;;7.93;3.45;;;21.00;44.40;;;;;;5028359;28;20044;-41
2021/03/04 08:02:22;;;;;;;6.70;2.90;;;21.00;45.10;;;;;;5034097;28;20044;-44
2021/03/04 08:04:48;;;;;;;5.85;3.50;;;21.00;44.40;;;;;;5034137;28;20038;-43
2021/03/04 08:07:26;;;;;;;5.07;2.50;;;21.00;44.30;;;;;;5033737;28;20029;-41
2021/03/04 08:10:03;;;;;;;8.40;3.25;;;21.00;44.30;;;;;;5034182;28;20095;-42
2021/03/04 08:12:29;;;;;;;4.70;3.45;;;20.90;44.20;;;;;;5013826;28;20033;-43
2021/03/04 08:14:56;;;;;;;8.05;4.00;;;20.90;44.20;;;;;;5016253;28;20021;-41
2021/03/04 08:17:22;;;;;;;4.30;2.83;;;20.90;44.20;;;;;;5033646;28;20025;-46
2021/03/04 08:19:48;;;;;;;6.40;2.85;;;20.90;44.10;;;;;;5015805;28;20041;-41
2021/03/04 08:22:21;;;;;;;4.45;2.80;;;20.90;44.10;;;;;;5032832;28;20057;-42
2021/03/04 08:24:47;;;;;;;6.32;3.20;;;20.90;44.30;;;;;;5033015;28;20518;-45
2021/03/04 08:27:14;;;;;;;4.38;2.72;;;20.90;44.10;;;;;;5030801;28;20425;-43
2021/03/04 08:29:49;;;;;;;5.78;2.80;;;20.90;44.00;;;;;;5014372;28;20025;-44
2021/03/04 08:32:15;;;;;;;8.10;3.05;;;20.90;44.10;;;;;;5033413;28;20379;-45
2021/03/04 08:34:42;;;;;;;6.72;3.10;;;20.90;44.00;;;;;;5039518;28;20068;-46
2021/03/04 08:37:24;;;;;;;6.93;3.47;;;20.90;43.90;;;;;;5036882;28;20074;-45
2021/03/04 08:40:01;;;;;;;5.18;2.70;;;20.90;43.90;;;;;;5039465;28;20044;-43
2021/03/04 08:42:27;;;;;;;7.65;3.47;;;20.90;43.90;;;;;;5039072;28;20466;-43
2021/03/04 08:44:52;;;;;;;8.35;3.58;;;20.90;44.20;;;;;;5039689;28;20052;-40
2021/03/04 08:47:18;;;;;;;7.50;2.95;;;20.90;44.30;;;;;;5033161;28;20470;-44
2021/03/04 08:49:52;;;;;;;5.72;2.88;;;20.90;44.40;;;;;;5026239;28;20033;-43
2021/03/04 08:52:26;;;;;;;4.82;2.72;;;20.90;44.50;;;;;;5032231;28;20040;-47
2021/03/04 08:54:53;;;;;;;5.15;2.90;;;20.90;44.60;;;;;;5016703;28;20032;-43
2021/03/04 08:57:24;;;;;;;8.10;2.78;;;20.90;44.60;;;;;;5033021;28;20037;-42
2021/03/04 09:00:10;;;;;;;6.93;2.63;;;20.90;44.70;;;;;;5018569;28;20045;-42
2021/03/04 09:02:36;;;;;;;6.65;3.05;;;20.90;44.70;;;;;;5031413;28;20041;-41
2021/03/04 09:05:04;;;;;;;7.05;2.88;;;20.90;44.70;;;;;;5038168;28;20041;-41
2021/03/04 09:07:40;;;;;;;6.00;2.90;;;20.90;44.70;;;;;;5039034;28;20036;-44
2021/03/04 09:10:07;;;;;;;5.80;2.65;;;20.90;44.70;;;;;;5029336;28;20044;-41
2021/03/04 09:12:44;;;;;;;8.65;2.55;;;20.90;44.70;;;;;;5031086;28;20041;-44
2021/03/04 09:15:11;;;;;;;6.68;2.53;;;20.90;44.70;;;;;;5033250;28;20417;-42
2021/03/04 09:17:41;;;;;;;10.18;3.20;;;20.90;44.70;;;;;;5016050;28;20477;-41
2021/03/04 09:20:09;;;;;;;6.53;3.20;;;20.90;44.60;;;;;;5025373;28;20131;-40
2021/03/04 09:22:35;;;;;;;6.05;2.80;;;20.90;44.80;;;;;;5030990;28;20053;-49
2021/03/04 09:25:02;;;;;;;9.90;3.15;;;21.00;45.00;;;;;;5030974;28;20041;-45
2021/03/04 09:27:28;;;;;;;6.88;2.55;;;21.00;45.20;;;;;;5025855;28;20025;-46
2021/03/04 09:29:54;;;;;;;6.43;3.00;;;21.00;45.30;;;;;;5026743;28;20065;-43
2021/03/04 09:32:32;;;;;;;5.25;2.47;;;21.00;45.50;;;;;;5012010;28;20085;-42
2021/03/04 09:34:58;;;;;;;5.93;2.58;;;21.00;45.70;;;;;;5025058;28;20498;-47
2021/03/04 09:37:25;;;;;;;8.05;2.80;;;21.00;45.80;;;;;;5031733;28;20033;-50
2021/03/04 09:39:52;;;;;;;7.35;2.72;;;21.00;45.80;;;;;;5014424;28;20038;-40
2021/03/04 09:42:30;;;;;;;7.45;3.85;;;21.00;45.90;;;;;;5032124;28;20029;-40
2021/03/04 09:44:59;;;;;;;6.55;2.50;;;21.00;46.00;;;;;;5031429;28;20071;-43
2021/03/04 09:47:30;;;;;;;5.78;2.78;;;21.00;46.00;;;;;;5030839;28;20047;-44
2021/03/04 09:49:57;;;;;;;4.97;2.78;;;21.00;46.10;;;;;;5032375;28;20482;-41
2021/03/04 09:52:24;;;;;;;5.85;2.38;;;21.00;46.00;;;;;;5031252;28;20022;-47
2021/03/04 09:54:50;;;;;;;9.52;3.15;;;21.00;46.00;;;;;;5032199;28;20163;-43
2021/03/04 09:57:20;;;;;;;5.90;2.55;;;21.00;46.00;;;;;;5030553;28;20456;-41
2021/03/04 09:59:50;;;;;;;7.80;2.85;;;21.00;46.00;;;;;;5030457;28;20029;-42
2021/03/04 10:02:16;;;;;;;5.60;2.70;;;21.00;46.00;;;;;;5033698;28;20497;-45
2021/03/04 10:05:02;;;;;;;3.95;2.33;;;21.00;45.90;;;;;;5013837;28;20026;-46
2021/03/04 10:07:31;;;;;;;5.05;2.60;;;21.00;46.00;;;;;;5031379;28;20025;-42
2021/03/04 10:09:58;;;;;;;7.18;2.70;;;21.00;45.90;;;;;;5031844;28;20022;-42
2021/03/04 10:12:25;;;;;;;5.38;2.50;;;21.10;45.90;;;;;;5031409;28;20492;-50
2021/03/04 10:14:53;;;;;;;4.85;2.75;;;21.10;46.00;;;;;;5031204;28;20109;-44
2021/03/04 10:17:19;;;;;;;5.05;2.25;;;21.00;45.90;;;;;;5036807;28;20028;-42
2021/03/04 10:19:45;;;;;;;6.78;2.30;;;21.10;46.00;;;;;;5032311;28;20092;-43
2021/03/04 10:22:11;;;;;;;4.13;2.25;;;21.00;45.90;;;;;;5032838;28;20037;-42
2021/03/04 10:24:37;;;;;;;10.10;2.70;;;21.10;45.90;;;;;;5015411;28;20035;-44
2021/03/04 10:27:05;;;;;;;4.13;2.38;;;21.10;45.90;;;;;;5014329;28;20039;-45
2021/03/04 10:29:31;;;;;;;6.90;2.33;;;21.00;45.70;;;;;;5030822;28;20033;-43
2021/03/04 10:31:57;;;;;;;6.35;2.55;;;21.00;45.90;;;;;;5034950;28;20025;-41
2021/03/04 10:34:24;;;;;;;5.60;2.30;;;21.00;45.90;;;;;;5038013;28;20028;-49
2021/03/04 10:36:50;;;;;;;3.55;2.63;;;21.00;45.80;;;;;;5038611;28;20056;-44
2021/03/04 10:39:17;;;;;;;6.45;2.33;;;21.00;45.80;;;;;;5034047;28;20076;-42
2021/03/04 10:41:43;;;;;;;5.90;2.38;;;21.10;45.90;;;;;;5030383;28;20044;-42
2021/03/04 10:44:10;;;;;;;6.50;2.20;;;21.00;45.80;;;;;;5029704;28;20060;-42
2021/03/04 10:46:37;;;;;;;5.57;2.35;;;21.00;45.90;;;;;;5032198;28;20021;-41
2021/03/04 10:49:03;;;;;;;6.55;2.50;;;21.00;45.90;;;;;;5036667;28;20107;-43
2021/03/04 10:51:30;;;;;;;4.97;2.30;;;21.10;45.90;;;;;;5035108;28;20473;-42
2021/03/04 10:53:55;;;;;;;5.28;2.50;;;21.00;45.90;;;;;;5036623;28;20033;-41
2021/03/04 10:56:21;;;;;;;4.80;2.20;;;21.00;45.90;;;;;;5033166;28;20030;-42
2021/03/04 10:58:47;;;;;;;6.45;2.33;;;21.00;45.90;;;;;;5014646;28;20041;-40
2021/03/04 11:01:12;;;;;;;4.03;2.28;;;21.00;45.80;;;;;;5035498;28;20029;-41
2021/03/04 11:03:38;;;;;;;6.13;2.58;;;21.00;45.90;;;;;;5015323;28;20025;-43
2021/03/04 11:06:03;;;;;;;5.03;2.42;;;21.10;46.00;;;;;;5031685;28;20029;-41
2021/03/04 11:08:29;;;;;;;4.05;2.10;;;21.10;45.90;;;;;;5034010;28;20041;-41
2021/03/04 11:10:55;;;;;;;4.43;2.25;;;21.00;45.80;;;;;;5026938;28;20036;-43
2021/03/04 11:13:21;;;;;;;8.05;2.45;;;21.00;45.90;;;;;;5034223;28;20037;-42
2021/03/04 11:15:46;;;;;;;4.40;2.50;;;21.00;45.80;;;;;;5028161;28;20505;-40
2021/03/04 11:18:12;;;;;;;6.82;2.03;;;21.10;46.10;;;;;;5013102;28;20115;-41
2021/03/04 11:20:38;;;;;;;4.18;2.80;;;21.10;46.20;;;;;;5010817;28;20413;-41
2021/03/04 11:23:03;;;;;;;3.80;2.15;;;21.10;46.10;;;;;;5031025;28;20036;-44
2021/03/04 11:25:29;;;;;;;4.63;2.33;;;21.10;46.10;;;;;;5030303;28;20060;-40
2021/03/04 11:27:55;;;;;;;6.28;2.63;;;21.10;46.20;;;;;;5028830;28;20105;-41
2021/03/04 11:30:21;;;;;;;10.48;5.85;;;21.10;46.10;;;;;;5031776;28;20117;-41
2021/03/04 11:32:47;;;;;;;11.48;4.03;;;21.10;50.00;;;;;;5031312;28;20045;-42
2021/03/04 11:35:12;;;;;;;10.80;3.60;;;21.10;47.80;;;;;;5037995;28;20044;-44
2021/03/04 11:37:38;;;;;;;7.97;3.63;;;21.10;48.70;;;;;;5029837;28;20034;-41
2021/03/04 11:40:04;;;;;;;7.13;2.70;;;21.10;48.90;;;;;;5031860;28;20084;-42
2021/03/04 11:42:30;;;;;;;13.15;3.10;;;21.10;48.50;;;;;;5033833;28;20030;-47
2021/03/04 11:44:56;;;;;;;8.48;3.30;;;21.10;49.20;;;;;;5032972;28;20022;-42
2021/03/04 11:47:21;;;;;;;12.55;3.30;;;21.10;49.00;;;;;;5041744;28;20025;-43
2021/03/04 11:49:47;;;;;;;5.95;3.30;;;21.10;49.10;;;;;;5034804;28;20033;-44
2021/03/04 11:52:13;;;;;;;8.27;3.13;;;21.20;49.60;;;;;;5038329;28;20033;-42
2021/03/04 11:54:38;;;;;;;7.95;3.05;;;21.20;49.40;;;;;;5037232;28;20034;-41
2021/03/04 11:57:04;;;;;;;5.40;2.55;;;21.20;49.00;;;;;;5036144;28;20156;-49
2021/03/04 11:59:30;;;;;;;3.90;2.22;;;21.20;49.00;;;;;;5035131;28;20180;-40
2021/03/04 12:01:57;;;;;;;6.13;2.80;;;21.20;48.90;;;;;;5035423;28;20034;-44
2021/03/04 12:04:23;;;;;;;7.82;2.60;;;21.20;48.80;;;;;;5033844;28;20379;-42
2021/03/04 12:06:48;;;;;;;9.60;3.17;;;21.20;49.00;;;;;;5031433;28;20033;-41
2021/03/04 12:09:14;;;;;;;7.00;2.58;;;21.20;49.20;;;;;;5039531;28;20478;-42
2021/03/04 12:11:40;;;;;;;5.82;2.33;;;21.20;49.00;;;;;;5034115;28;20053;-42
2021/03/04 12:14:05;;;;;;;11.23;3.67;;;21.20;48.80;;;;;;5030615;28;20033;-43
2021/03/04 12:16:31;;;;;;;3.92;2.45;;;21.20;48.50;;;;;;5035639;28;20030;-41
2021/03/04 12:18:57;;;;;;;5.95;2.80;;;21.20;48.50;;;;;;5038888;28;20033;-44
2021/03/04 12:21:23;;;;;;;7.60;2.65;;;21.20;48.40;;;;;;5033029;28;20029;-45
2021/03/04 12:23:49;;;;;;;6.07;2.58;;;21.10;48.30;;;;;;5035334;28;20761;-42
2021/03/04 12:26:15;;;;;;;6.30;3.10;;;21.10;48.10;;;;;;5041583;28;20022;-43
2021/03/04 12:28:40;;;;;;;6.32;2.67;;;21.10;48.00;;;;;;5040566;28;20036;-43
2021/03/04 12:31:06;;;;;;;7.70;2.63;;;21.10;48.00;;;;;;5044310;28;20028;-42
2021/03/04 12:33:32;;;;;;;4.75;2.70;;;21.10;47.90;;;;;;5043572;28;20049;-42
2021/03/04 12:35:58;;;;;;;12.10;2.95;;;21.10;47.80;;;;;;5037452;28;20111;-43
2021/03/04 12:38:23;;;;;;;4.45;2.60;;;21.10;47.80;;;;;;5020450;28;20033;-48
2021/03/04 12:40:49;;;;;;;5.32;2.15;;;21.10;47.60;;;;;;5010763;28;20545;-43
2021/03/04 12:43:15;;;;;;;5.72;2.80;;;21.10;47.60;;;;;;5042277;28;20029;-45
2021/03/04 12:45:40;;;;;;;6.20;2.60;;;21.10;48.10;;;;;;5034772;28;20410;-50
2021/03/04 12:48:06;;;;;;;6.40;2.75;;;21.10;47.40;;;;;;5037088;28;20063;-43